createdAt,value
2023-04-29T00:02:06.165Z,45.36
2023-04-29T00:12:11.193Z,45.23
2023-04-29T00:22:18.233Z,45.65
2023-04-29T00:32:23.444Z,45.77
2023-04-29T00:42:32.316Z,45.88
2023-04-29T00:52:38.102Z,46.38
2023-04-29T01:02:46.409Z,46.44
2023-04-29T01:13:16.480Z,46.22
2023-04-29T01:23:22.495Z,46.00
2023-04-29T01:34:47.909Z,46.27
2023-04-29T01:45:16.491Z,46.60
2023-04-29T01:56:00.949Z,47.01
2023-04-29T02:07:20.971Z,47.40
2023-04-29T02:17:46.935Z,47.51
2023-04-29T02:27:51.576Z,47.26
2023-04-29T02:37:57.637Z,47.58
2023-04-29T02:48:01.433Z,47.95
2023-04-29T02:58:27.477Z,48.12
2023-04-29T03:08:31.311Z,47.84
2023-04-29T03:18:35.049Z,47.83
2023-04-29T03:28:38.969Z,47.62
2023-04-29T03:38:43.612Z,47.49
2023-04-29T03:48:47.802Z,46.91
2023-04-29T03:59:52.835Z,46.20
2023-04-29T04:09:59.115Z,45.67
2023-04-29T04:20:25.100Z,44.82
2023-04-29T04:30:29.943Z,44.11
2023-04-29T04:40:35.503Z,43.08
2023-04-29T04:51:13.925Z,42.24
2023-04-29T05:01:24.525Z,41.19
2023-04-29T05:11:29.136Z,40.70
2023-04-29T05:22:37.515Z,40.22
2023-04-29T05:32:41.202Z,39.90
2023-04-29T05:42:49.702Z,39.26
2023-04-29T05:52:54.860Z,38.36
2023-04-29T06:03:03.129Z,37.34
2023-04-29T06:13:07.092Z,36.25
2023-04-29T06:23:11.180Z,35.53
2023-04-29T06:33:15.784Z,35.37
2023-04-29T06:43:19.892Z,35.00
2023-04-29T06:53:42.134Z,35.16
2023-04-29T07:03:49.695Z,35.02
2023-04-29T07:13:56.619Z,34.69
2023-04-29T07:24:10.079Z,34.54
2023-04-29T07:34:25.638Z,34.20
2023-04-29T07:44:32.298Z,33.78
2023-04-29T07:54:40.590Z,33.27
2023-04-29T08:04:45.397Z,32.69
2023-04-29T08:15:09.515Z,31.86
2023-04-29T08:25:15.374Z,31.15
2023-04-29T08:35:19.237Z,30.53
2023-04-29T08:45:27.540Z,30.68
2023-04-29T08:55:33.566Z,31.05
2023-04-29T09:05:38.804Z,30.68
2023-04-29T09:15:42.998Z,29.71
2023-04-29T09:25:58.532Z,28.99
2023-04-29T09:36:02.342Z,28.09
2023-04-29T09:46:06.174Z,27.92
2023-04-29T09:56:09.856Z,26.97
2023-04-29T10:06:16.943Z,26.77
2023-04-29T10:16:21.679Z,26.61
2023-04-29T10:26:30.169Z,26.69
2023-04-29T10:36:35.142Z,26.24
2023-04-29T10:47:21.720Z,25.84
2023-04-29T10:57:25.389Z,25.52
2023-04-29T11:07:31.919Z,25.44
2023-04-29T11:17:38.775Z,25.25
2023-04-29T11:27:50.601Z,24.83
2023-04-29T11:37:56.860Z,24.90
2023-04-29T11:48:01.359Z,24.54
2023-04-29T11:58:05.998Z,24.77
2023-04-29T12:08:09.765Z,24.60
2023-04-29T12:18:15.572Z,24.93
2023-04-29T12:28:19.957Z,24.99
2023-04-29T12:38:27.913Z,25.18
2023-04-29T12:48:34.104Z,25.12
2023-04-29T12:58:39.023Z,25.16
2023-04-29T13:08:44.715Z,25.03
2023-04-29T13:19:01.783Z,25.42
2023-04-29T13:29:13.013Z,25.35
2023-04-29T13:39:20.187Z,25.34
2023-04-29T13:49:55.954Z,25.18
2023-04-29T13:59:55.322Z,25.17
2023-04-29T14:09:59.273Z,25.48
2023-04-29T14:20:06.228Z,25.70
2023-04-29T14:30:10.303Z,25.97
2023-04-29T14:40:13.981Z,26.32
2023-04-29T14:50:19.850Z,26.47
2023-04-29T15:00:43.759Z,26.39
2023-04-29T15:10:48.017Z,26.67
2023-04-29T15:21:35.591Z,26.61
2023-04-29T15:31:39.406Z,26.52
2023-04-29T15:41:45.068Z,26.85
2023-04-29T15:51:48.715Z,27.34
2023-04-29T16:01:57.655Z,27.81
2023-04-29T16:12:05.377Z,28.62
2023-04-29T16:22:10.156Z,29.05
2023-04-29T16:32:13.732Z,29.82
2023-04-29T16:42:17.725Z,30.57
2023-04-29T16:52:25.244Z,31.30
2023-04-29T17:02:29.834Z,31.63
2023-04-29T17:12:35.728Z,32.11
2023-04-29T17:22:42.210Z,33.05
2023-04-29T17:32:46.929Z,34.17
2023-04-29T17:42:51.092Z,34.64
2023-04-29T17:52:56.842Z,34.84
2023-04-29T18:03:01.066Z,35.05
2023-04-29T18:13:04.864Z,35.17
2023-04-29T18:23:12.336Z,35.12
2023-04-29T18:33:16.823Z,35.62
2023-04-29T18:43:25.017Z,35.84
2023-04-29T18:53:30.169Z,36.06
2023-04-29T19:03:37.309Z,36.88
2023-04-29T19:13:44.245Z,37.25
2023-04-29T19:23:48.102Z,37.60
2023-04-29T19:33:52.746Z,38.13
2023-04-29T19:43:58.430Z,39.83
2023-04-29T19:54:02.234Z,41.23
2023-04-29T20:04:06.288Z,42.32
2023-04-29T20:14:15.760Z,43.18
2023-04-29T20:24:19.364Z,44.05
2023-04-29T20:34:26.685Z,45.27
2023-04-29T20:44:33.657Z,46.63
2023-04-29T20:54:37.950Z,47.94
2023-04-29T21:04:46.565Z,49.58
2023-04-29T21:14:50.226Z,50.41
2023-04-29T21:24:53.773Z,52.16
2023-04-29T21:35:00.183Z,53.74
2023-04-29T21:46:07.075Z,54.44
2023-04-29T21:56:14.213Z,56.05
2023-04-29T22:06:38.323Z,56.68
2023-04-29T22:16:45.055Z,57.28
2023-04-29T22:26:51.054Z,57.86
2023-04-29T22:37:45.257Z,58.56
2023-04-29T22:47:50.743Z,59.66
2023-04-29T22:57:55.697Z,61.96
2023-04-29T23:09:00.049Z,64.23
2023-04-29T23:19:04.995Z,65.27
2023-04-29T23:29:08.632Z,61.59
2023-04-29T23:39:15.562Z,61.46
2023-04-29T23:49:20.313Z,60.96
2023-04-29T23:59:23.958Z,59.80
